Time;durP1;ratioP1;P1;durP2;ratioP2;P2;SDS_P1;SDS_P2;PMS_P1;PMS_P2;Temp;Humidity;BMP_temperature;BMP_pressure;BME280_temperature;BME280_humidity;BME280_pressure;Samples;Min_cycle;Max_cycle;Signal;HPM_P1;HPM_P2
2021/08/20 00:02:06;;;;;;;5.22;4.25;;;25.80;51.10;;;;;;4953544;28;20396;-50
2021/08/20 00:04:32;;;;;;;8.57;4.38;;;25.80;51.20;;;;;;4955301;29;20424;-53
2021/08/20 00:06:57;;;;;;;10.02;5.03;;;25.80;51.30;;;;;;4957271;29;20110;-50
2021/08/20 00:09:23;;;;;;;6.63;3.72;;;25.70;51.40;;;;;;4955642;29;20377;-52
2021/08/20 00:11:49;;;;;;;21.17;4.95;;;25.70;51.30;;;;;;4957102;29;20516;-51
2021/08/20 00:14:15;;;;;;;5.43;4.05;;;25.70;51.40;;;;;;4956973;29;20449;-51
2021/08/20 00:16:42;;;;;;;8.75;4.63;;;25.60;51.40;;;;;;4957148;29;20122;-52
2021/08/20 00:19:08;;;;;;;5.40;3.90;;;25.70;51.50;;;;;;4955805;29;20465;-48
2021/08/20 00:21:35;;;;;;;6.88;4.20;;;25.60;51.50;;;;;;4956298;29;20032;-50
2021/08/20 00:24:01;;;;;;;7.22;4.47;;;25.60;51.60;;;;;;4957033;29;20027;-50
2021/08/20 00:26:26;;;;;;;5.97;4.43;;;25.60;51.60;;;;;;4955019;29;20082;-52
2021/08/20 00:28:52;;;;;;;8.23;4.47;;;25.60;51.70;;;;;;4956823;29;20027;-52
2021/08/20 00:31:18;;;;;;;8.80;4.68;;;25.60;51.70;;;;;;4939055;29;20034;-53
2021/08/20 00:33:44;;;;;;;6.95;4.38;;;25.60;51.70;;;;;;4939575;29;20409;-52
2021/08/20 00:36:10;;;;;;;6.50;3.88;;;25.50;51.60;;;;;;4956351;29;20396;-52
2021/08/20 00:38:38;;;;;;;5.72;4.07;;;25.50;51.70;;;;;;4954812;29;20520;-48
2021/08/20 00:41:05;;;;;;;6.00;4.05;;;25.50;51.70;;;;;;4956211;29;20042;-54
2021/08/20 00:43:31;;;;;;;6.03;4.00;;;25.50;51.70;;;;;;4956288;29;20023;-51
2021/08/20 00:45:59;;;;;;;5.55;4.25;;;25.40;51.80;;;;;;4956479;29;20035;-54
2021/08/20 00:48:26;;;;;;;8.50;4.20;;;25.40;51.80;;;;;;4956033;29;20027;-48
2021/08/20 00:51:26;;;;;;;7.55;4.03;;;25.40;51.80;;;;;;4955198;29;20038;-48
2021/08/20 00:53:54;;;;;;;4.68;3.50;;;25.30;52.00;;;;;;4956457;29;20047;-51
2021/08/20 00:56:20;;;;;;;7.72;4.10;;;25.30;52.00;;;;;;4954566;29;20098;-53
2021/08/20 00:58:48;;;;;;;6.63;3.65;;;25.30;52.00;;;;;;4954794;29;20097;-51
2021/08/20 01:01:14;;;;;;;7.68;3.90;;;25.30;52.10;;;;;;4956043;29;20409;-52
2021/08/20 01:03:40;;;;;;;7.45;4.30;;;25.30;52.10;;;;;;4954822;29;20074;-46
2021/08/20 01:06:06;;;;;;;5.70;3.38;;;25.30;52.20;;;;;;4955813;29;20062;-50
2021/08/20 01:08:34;;;;;;;8.68;4.20;;;25.30;52.10;;;;;;4955307;29;20050;-50
2021/08/20 01:11:04;;;;;;;5.40;3.58;;;25.30;52.10;;;;;;4955630;29;20079;-51
2021/08/20 01:13:36;;;;;;;8.23;4.40;;;25.30;52.00;;;;;;4954012;28;20408;-50
2021/08/20 01:16:02;;;;;;;7.45;4.18;;;25.30;52.10;;;;;;4954768;29;20082;-47
2021/08/20 01:18:34;;;;;;;7.75;3.90;;;25.30;52.10;;;;;;4954999;29;20070;-49
2021/08/20 01:21:19;;;;;;;6.63;4.03;;;25.20;52.10;;;;;;4955567;29;20031;-51
2021/08/20 01:23:48;;;;;;;6.97;4.38;;;25.20;52.10;;;;;;4956183;29;20074;-49
2021/08/20 01:26:13;;;;;;;6.32;3.63;;;25.20;52.10;;;;;;4955829;29;20027;-53
2021/08/20 01:28:39;;;;;;;5.97;4.22;;;25.20;52.10;;;;;;4953948;29;20031;-52
2021/08/20 01:31:07;;;;;;;5.28;3.47;;;25.20;52.20;;;;;;4955744;29;20130;-52
2021/08/20 01:33:33;;;;;;;7.03;4.00;;;25.20;52.20;;;;;;4954726;29;20030;-50
2021/08/20 01:35:59;;;;;;;5.22;3.60;;;25.10;52.20;;;;;;4955708;29;20023;-50
2021/08/20 01:38:26;;;;;;;7.28;3.97;;;25.10;52.30;;;;;;4953632;29;20074;-49
2021/08/20 01:40:53;;;;;;;7.43;3.60;;;25.10;52.30;;;;;;4954011;29;20039;-51
2021/08/20 01:43:21;;;;;;;6.85;3.72;;;25.10;52.40;;;;;;4954787;29;20079;-51
2021/08/20 01:45:48;;;;;;;5.00;3.80;;;25.10;52.50;;;;;;4955367;29;20027;-52
2021/08/20 01:48:14;;;;;;;6.63;4.15;;;25.00;52.50;;;;;;4955090;29;20118;-50
2021/08/20 01:50:40;;;;;;;6.05;3.72;;;25.00;52.50;;;;;;4954784;29;20035;-48
2021/08/20 01:53:11;;;;;;;7.03;4.10;;;25.00;52.60;;;;;;4953710;29;20131;-48
2021/08/20 01:55:38;;;;;;;5.28;3.90;;;25.00;52.70;;;;;;4954694;29;20031;-49
2021/08/20 01:58:04;;;;;;;9.82;3.83;;;25.00;52.70;;;;;;4955251;29;20031;-51
2021/08/20 02:00:30;;;;;;;9.07;3.92;;;24.90;52.70;;;;;;4953384;29;20417;-53
2021/08/20 02:02:56;;;;;;;6.85;3.53;;;24.90;52.80;;;;;;4955015;29;20035;-47
2021/08/20 02:05:22;;;;;;;6.45;4.32;;;24.90;52.90;;;;;;4954108;29;20127;-47
2021/08/20 02:07:47;;;;;;;6.63;4.00;;;24.90;52.90;;;;;;4955255;29;20027;-48
2021/08/20 02:10:13;;;;;;;6.25;3.83;;;24.80;52.80;;;;;;4954689;29;20473;-51
2021/08/20 02:12:39;;;;;;;5.65;3.85;;;24.90;52.80;;;;;;4953145;29;20034;-48
2021/08/20 02:15:05;;;;;;;5.72;4.05;;;24.80;52.90;;;;;;4953646;29;20163;-52
2021/08/20 02:17:31;;;;;;;6.85;4.05;;;24.80;52.90;;;;;;4954406;29;20044;-47
2021/08/20 02:19:57;;;;;;;5.43;3.72;;;24.80;53.00;;;;;;4954935;29;20405;-50
2021/08/20 02:22:23;;;;;;;6.07;4.03;;;24.80;52.90;;;;;;4954357;29;20059;-52
2021/08/20 02:24:52;;;;;;;6.97;4.13;;;24.80;52.80;;;;;;4954321;28;20027;-52
2021/08/20 02:27:18;;;;;;;10.38;4.07;;;24.90;52.80;;;;;;4954522;29;20023;-54
2021/08/20 02:29:44;;;;;;;8.30;4.00;;;24.90;52.80;;;;;;4952927;29;20035;-49
2021/08/20 02:32:09;;;;;;;7.30;4.03;;;24.80;52.70;;;;;;4953575;29;20027;-48
2021/08/20 02:34:35;;;;;;;6.72;3.88;;;24.80;52.80;;;;;;4953758;29;20043;-52
2021/08/20 02:37:01;;;;;;;8.55;4.13;;;24.80;52.80;;;;;;4953326;29;20576;-50
2021/08/20 02:39:26;;;;;;;6.50;3.70;;;24.80;52.80;;;;;;4954017;29;20543;-50
2021/08/20 02:41:52;;;;;;;8.13;4.15;;;24.80;52.80;;;;;;4953246;29;20424;-48
2021/08/20 02:44:18;;;;;;;6.55;3.88;;;24.80;52.80;;;;;;4954266;29;20030;-53
2021/08/20 02:46:44;;;;;;;9.05;3.83;;;24.80;52.90;;;;;;4952729;29;20082;-49
2021/08/20 02:49:10;;;;;;;9.00;3.90;;;24.70;52.90;;;;;;4954275;29;20031;-53
2021/08/20 02:51:36;;;;;;;5.50;4.00;;;24.70;52.90;;;;;;4953662;29;20118;-49
2021/08/20 02:54:02;;;;;;;5.55;3.70;;;24.70;53.00;;;;;;4953853;29;20573;-50
2021/08/20 02:56:28;;;;;;;5.35;3.83;;;24.60;53.00;;;;;;4952498;29;20046;-50
2021/08/20 02:58:53;;;;;;;9.18;4.32;;;24.60;53.00;;;;;;4953930;29;20468;-47
2021/08/20 03:01:19;;;;;;;6.32;4.18;;;24.60;53.10;;;;;;4952828;29;20467;-50
2021/08/20 03:03:45;;;;;;;5.63;3.92;;;24.60;53.20;;;;;;4953708;29;20434;-51
2021/08/20 03:06:10;;;;;;;6.43;3.83;;;24.50;53.20;;;;;;4954284;29;20027;-49
2021/08/20 03:08:39;;;;;;;5.32;4.03;;;24.60;53.30;;;;;;4952428;29;20121;-47
2021/08/20 03:11:05;;;;;;;8.57;3.97;;;24.50;53.30;;;;;;4954068;29;20027;-46
2021/08/20 03:13:31;;;;;;;6.03;3.88;;;24.50;53.30;;;;;;4952340;29;20033;-47
2021/08/20 03:15:57;;;;;;;7.65;3.88;;;24.50;53.30;;;;;;4953881;29;20031;-50
2021/08/20 03:18:23;;;;;;;6.97;4.03;;;24.50;53.30;;;;;;4953794;29;20035;-49
2021/08/20 03:20:48;;;;;;;7.65;4.00;;;24.40;53.40;;;;;;4953249;29;20106;-52
2021/08/20 03:23:15;;;;;;;6.32;3.85;;;24.50;53.50;;;;;;4954096;29;20047;-49
2021/08/20 03:25:40;;;;;;;6.60;4.20;;;24.40;53.40;;;;;;4952186;29;20028;-51
2021/08/20 03:28:07;;;;;;;9.00;3.95;;;24.40;53.60;;;;;;4954093;29;20031;-50
2021/08/20 03:30:35;;;;;;;6.82;4.00;;;24.40;53.50;;;;;;4952163;29;20035;-48
2021/08/20 03:33:01;;;;;;;6.28;3.78;;;24.40;53.50;;;;;;4953672;29;20028;-50
2021/08/20 03:35:27;;;;;;;9.15;4.28;;;24.40;53.60;;;;;;4952925;29;20097;-50
2021/08/20 03:37:52;;;;;;;7.43;4.22;;;24.30;53.70;;;;;;4955744;28;20362;-49
2021/08/20 03:40:18;;;;;;;5.95;3.83;;;24.30;53.90;;;;;;4957307;29;20031;-54
2021/08/20 03:42:44;;;;;;;7.68;3.78;;;24.30;53.90;;;;;;4956342;29;20082;-53
2021/08/20 03:45:11;;;;;;;6.88;3.97;;;24.30;53.80;;;;;;4956555;29;20028;-50
2021/08/20 03:47:37;;;;;;;6.47;4.13;;;24.40;53.70;;;;;;4956216;29;20038;-52
2021/08/20 03:50:04;;;;;;;7.88;4.10;;;24.40;53.60;;;;;;4957030;29;20445;-48
2021/08/20 03:52:30;;;;;;;9.63;4.40;;;24.40;53.60;;;;;;4956187;29;20118;-50
2021/08/20 03:54:55;;;;;;;10.05;4.80;;;24.40;53.60;;;;;;4956771;29;20493;-46
2021/08/20 03:57:21;;;;;;;7.88;4.00;;;24.40;53.60;;;;;;4955259;29;20031;-51
2021/08/20 03:59:47;;;;;;;8.23;4.15;;;24.40;53.60;;;;;;4955888;29;20031;-49
2021/08/20 04:02:12;;;;;;;6.50;4.28;;;24.40;53.60;;;;;;4955323;29;20027;-49
2021/08/20 04:04:38;;;;;;;7.97;4.47;;;24.30;53.60;;;;;;4955768;29;20032;-50
2021/08/20 04:07:04;;;;;;;7.10;4.22;;;24.30;53.60;;;;;;4956596;29;20027;-48
2021/08/20 04:09:29;;;;;;;9.02;3.90;;;24.30;53.70;;;;;;4954688;29;20156;-51
2021/08/20 04:11:55;;;;;;;10.10;4.30;;;24.30;53.60;;;;;;4956284;29;20023;-48
2021/08/20 04:14:21;;;;;;;7.85;4.28;;;24.30;53.70;;;;;;4956536;29;20039;-54
2021/08/20 04:16:47;;;;;;;7.25;4.18;;;24.30;53.70;;;;;;4955493;29;20538;-48
2021/08/20 04:19:12;;;;;;;7.13;4.43;;;24.30;53.60;;;;;;4954887;29;20031;-49
2021/08/20 04:21:38;;;;;;;10.57;4.40;;;24.30;53.60;;;;;;4954808;29;20126;-48
2021/08/20 04:24:05;;;;;;;10.02;4.45;;;24.30;53.50;;;;;;4954659;29;20027;-49
2021/08/20 04:26:31;;;;;;;7.38;3.88;;;24.30;53.90;;;;;;4955455;29;20500;-53
2021/08/20 04:28:57;;;;;;;7.85;5.05;;;24.30;53.60;;;;;;4956278;29;20062;-46
2021/08/20 04:31:22;;;;;;;7.65;4.88;;;24.30;53.60;;;;;;4955070;29;20432;-47
2021/08/20 04:33:48;;;;;;;7.45;4.35;;;24.30;53.60;;;;;;4954980;29;20027;-51
2021/08/20 04:36:14;;;;;;;9.93;4.45;;;24.30;53.60;;;;;;4955362;29;20465;-51
2021/08/20 04:38:40;;;;;;;15.55;4.50;;;24.20;53.70;;;;;;4956230;29;20027;-52
2021/08/20 04:41:07;;;;;;;13.98;4.53;;;24.20;53.90;;;;;;4956642;29;20110;-48
2021/08/20 04:43:35;;;;;;;6.90;4.05;;;24.20;53.90;;;;;;4954999;29;20453;-50
2021/08/20 04:46:01;;;;;;;8.82;4.80;;;24.20;53.90;;;;;;4956628;29;20032;-47
2021/08/20 04:48:26;;;;;;;9.57;4.78;;;24.20;53.90;;;;;;4955870;28;20531;-50
2021/08/20 04:50:53;;;;;;;6.18;4.05;;;24.20;53.90;;;;;;4956284;29;20027;-51
2021/08/20 04:53:20;;;;;;;6.53;4.28;;;24.20;53.80;;;;;;4955049;29;20051;-51
2021/08/20 04:55:46;;;;;;;9.43;4.28;;;24.30;53.80;;;;;;4956268;29;20177;-52
2021/08/20 04:58:12;;;;;;;6.72;4.50;;;24.30;53.80;;;;;;4955108;29;20042;-49
2021/08/20 05:00:37;;;;;;;6.80;3.88;;;24.30;53.70;;;;;;4955471;29;20027;-53
2021/08/20 05:03:05;;;;;;;10.20;4.55;;;24.30;53.70;;;;;;4954856;29;20034;-52
2021/08/20 05:05:30;;;;;;;7.05;4.65;;;24.30;53.60;;;;;;4954477;29;20031;-53
2021/08/20 05:07:56;;;;;;;10.30;4.18;;;24.30;54.20;;;;;;4938873;29;20513;-46
2021/08/20 05:10:22;;;;;;;9.73;4.30;;;24.40;53.60;;;;;;4955991;29;20346;-51
2021/08/20 05:12:47;;;;;;;11.20;4.13;;;24.40;53.60;;;;;;4955943;29;20372;-50
2021/08/20 05:15:13;;;;;;;6.72;3.85;;;24.40;53.60;;;;;;4954967;29;20036;-50
2021/08/20 05:17:39;;;;;;;8.85;4.40;;;24.40;53.60;;;;;;4937831;29;20497;-48
2021/08/20 05:20:05;;;;;;;7.80;4.32;;;24.40;53.60;;;;;;4956016;29;20106;-48
2021/08/20 05:22:48;;;;;;;7.45;5.18;;;24.40;53.70;;;;;;4954300;29;20027;-52
2021/08/20 05:25:14;;;;;;;11.73;4.68;;;24.30;53.80;;;;;;4955891;29;20029;-51
2021/08/20 05:27:40;;;;;;;11.13;4.93;;;24.40;53.70;;;;;;4955404;29;20496;-50
2021/08/20 05:30:07;;;;;;;9.75;4.93;;;24.40;53.80;;;;;;4954446;29;20028;-46
2021/08/20 05:32:32;;;;;;;23.20;5.88;;;24.40;53.80;;;;;;4955286;29;20027;-48
2021/08/20 05:34:58;;;;;;;16.13;5.15;;;24.40;53.70;;;;;;4955421;29;20027;-47
2021/08/20 05:37:24;;;;;;;12.30;5.43;;;24.40;53.70;;;;;;4955946;29;20473;-48
2021/08/20 05:39:50;;;;;;;8.65;4.97;;;24.50;53.80;;;;;;4955285;29;20480;-51
2021/08/20 05:42:16;;;;;;;8.40;4.93;;;24.50;53.80;;;;;;4954524;29;20027;-50
2021/08/20 05:44:41;;;;;;;10.25;5.20;;;24.50;53.70;;;;;;4955096;29;20389;-51
2021/08/20 05:47:07;;;;;;;10.20;4.72;;;24.50;53.60;;;;;;4954027;29;20038;-51
2021/08/20 05:49:33;;;;;;;11.68;4.65;;;24.60;53.60;;;;;;4953538;29;20031;-52
2021/08/20 05:51:58;;;;;;;13.40;6.20;;;24.60;53.60;;;;;;4955413;29;20433;-46
2021/08/20 05:54:24;;;;;;;11.82;5.03;;;24.60;53.40;;;;;;4955444;29;20055;-49
2021/08/20 05:56:50;;;;;;;11.88;4.97;;;24.60;53.40;;;;;;4954794;29;20369;-51
2021/08/20 05:59:16;;;;;;;9.70;4.68;;;24.70;53.40;;;;;;4954801;29;20396;-49
2021/08/20 06:01:41;;;;;;;9.63;4.63;;;24.70;53.30;;;;;;4953597;28;20035;-51
2021/08/20 06:04:07;;;;;;;11.63;5.28;;;24.80;53.30;;;;;;4954717;29;20106;-52
2021/08/20 06:06:36;;;;;;;10.45;3.88;;;24.80;53.20;;;;;;4954986;29;20461;-50
2021/08/20 06:09:01;;;;;;;11.73;5.18;;;24.80;53.20;;;;;;4953508;29;20031;-50
2021/08/20 06:11:27;;;;;;;11.18;5.10;;;24.90;53.20;;;;;;4954570;29;20034;-49
2021/08/20 06:13:54;;;;;;;10.30;5.05;;;24.90;53.10;;;;;;4954484;29;20023;-52
2021/08/20 06:16:20;;;;;;;7.07;4.70;;;24.90;52.90;;;;;;4953327;29;20055;-46
2021/08/20 06:18:46;;;;;;;13.18;5.00;;;25.00;52.90;;;;;;4954128;29;20126;-51
2021/08/20 06:21:12;;;;;;;10.43;4.75;;;25.00;52.70;;;;;;4954417;29;20034;-51
2021/08/20 06:23:38;;;;;;;8.63;4.72;;;25.00;52.60;;;;;;4954050;29;20081;-50
2021/08/20 06:26:04;;;;;;;15.32;4.65;;;25.00;52.60;;;;;;4954690;29;20054;-51
2021/08/20 06:28:30;;;;;;;10.50;4.68;;;25.10;52.50;;;;;;4954486;29;20035;-49
2021/08/20 06:30:57;;;;;;;10.82;4.95;;;25.10;52.50;;;;;;4953939;29;20336;-48
2021/08/20 06:33:22;;;;;;;12.50;4.38;;;25.10;52.50;;;;;;4953282;29;20027;-55
2021/08/20 06:35:48;;;;;;;10.32;4.75;;;25.10;52.40;;;;;;4953708;29;20078;-53
2021/08/20 06:38:14;;;;;;;12.13;4.57;;;25.20;52.40;;;;;;4952894;29;20179;-51
2021/08/20 06:40:39;;;;;;;9.70;4.70;;;25.20;52.30;;;;;;4952808;29;20528;-51
2021/08/20 06:43:06;;;;;;;14.82;4.57;;;25.30;52.30;;;;;;4954307;29;20131;-49
2021/08/20 06:45:33;;;;;;;11.43;4.45;;;25.30;52.20;;;;;;4953079;29;20086;-48
2021/08/20 06:47:58;;;;;;;9.75;5.10;;;25.30;52.20;;;;;;4953622;29;20031;-46
2021/08/20 06:50:24;;;;;;;10.68;4.70;;;25.30;52.10;;;;;;4955196;29;20102;-49
2021/08/20 06:52:50;;;;;;;14.90;5.82;;;25.30;51.90;;;;;;4954556;29;20063;-52
2021/08/20 06:55:15;;;;;;;12.35;5.07;;;25.40;51.80;;;;;;4937138;29;20395;-49
2021/08/20 06:57:41;;;;;;;10.60;4.47;;;25.40;51.70;;;;;;4953575;29;20042;-52
2021/08/20 07:00:07;;;;;;;8.90;4.40;;;25.40;52.10;;;;;;4952835;29;20031;-51
2021/08/20 07:02:46;;;;;;;12.07;5.38;;;25.40;51.40;;;;;;4953585;29;20154;-47
2021/08/20 07:05:15;;;;;;;7.13;4.03;;;25.40;51.60;;;;;;4953918;29;20107;-50
2021/08/20 07:07:41;;;;;;;8.35;4.32;;;25.50;51.10;;;;;;4953154;29;20032;-50
2021/08/20 07:10:12;;;;;;;8.20;4.35;;;25.50;50.80;;;;;;4953952;29;20035;-51
2021/08/20 07:12:39;;;;;;;8.73;4.07;;;25.60;50.60;;;;;;4951856;28;20126;-48
2021/08/20 07:15:06;;;;;;;7.10;3.65;;;25.50;50.40;;;;;;4953648;29;20027;-49
2021/08/20 07:17:32;;;;;;;9.25;3.33;;;25.50;50.30;;;;;;4953347;29;20044;-49
2021/08/20 07:19:59;;;;;;;11.30;3.80;;;25.60;50.40;;;;;;4951764;29;20031;-49
2021/08/20 07:22:25;;;;;;;8.75;3.65;;;25.70;49.90;;;;;;4953594;29;20031;-51
2021/08/20 07:24:51;;;;;;;10.50;3.90;;;25.80;49.80;;;;;;4951567;29;20030;-49
2021/08/20 07:27:17;;;;;;;6.15;4.07;;;25.90;49.60;;;;;;4953712;29;20031;-46
2021/08/20 07:29:43;;;;;;;7.03;3.70;;;26.10;49.40;;;;;;4952654;29;20505;-50
2021/08/20 07:32:09;;;;;;;7.65;3.03;;;26.20;49.30;;;;;;4953584;29;20035;-47
2021/08/20 07:34:35;;;;;;;14.27;3.28;;;26.30;49.00;;;;;;4953386;29;20098;-53
2021/08/20 07:37:00;;;;;;;5.45;3.97;;;26.40;48.90;;;;;;4952774;29;20632;-53
2021/08/20 07:39:26;;;;;;;13.73;3.42;;;26.50;48.40;;;;;;4953463;29;20055;-54
2021/08/20 07:41:56;;;;;;;9.85;3.28;;;26.50;48.60;;;;;;4952780;29;20055;-48
2021/08/20 07:44:22;;;;;;;5.90;3.42;;;26.50;48.20;;;;;;4953648;29;20031;-49
2021/08/20 07:46:47;;;;;;;9.65;3.28;;;26.50;47.90;;;;;;4952911;29;20031;-49
2021/08/20 07:49:13;;;;;;;9.48;3.72;;;26.50;47.80;;;;;;4953172;29;20032;-47
2021/08/20 07:51:39;;;;;;;6.88;3.10;;;26.50;48.00;;;;;;4953315;29;20035;-50
2021/08/20 07:54:05;;;;;;;8.55;3.72;;;26.60;47.60;;;;;;4951573;29;20052;-47
2021/08/20 07:56:50;;;;;;;9.85;3.42;;;26.50;47.70;;;;;;4952953;29;20027;-55
2021/08/20 07:59:16;;;;;;;10.07;3.95;;;26.60;47.90;;;;;;4953438;29;20033;-50
2021/08/20 08:01:41;;;;;;;6.60;3.85;;;26.60;47.80;;;;;;4951755;29;20166;-49
2021/08/20 08:04:07;;;;;;;7.35;3.95;;;26.60;47.90;;;;;;4952522;29;20457;-53
2021/08/20 08:06:34;;;;;;;7.38;4.20;;;26.60;48.20;;;;;;4953020;29;20418;-51
2021/08/20 08:09:00;;;;;;;10.27;4.40;;;26.60;48.30;;;;;;4950481;29;20074;-49
2021/08/20 08:11:30;;;;;;;7.57;3.70;;;26.70;48.30;;;;;;4952686;29;20433;-47
2021/08/20 08:14:02;;;;;;;9.52;3.92;;;26.80;48.30;;;;;;4952553;29;20023;-48
2021/08/20 08:16:36;;;;;;;9.85;4.07;;;26.80;48.00;;;;;;4953050;29;20054;-48
2021/08/20 08:19:03;;;;;;;13.80;4.13;;;26.80;48.00;;;;;;4952838;29;20111;-53
2021/08/20 08:21:29;;;;;;;10.48;4.13;;;26.80;48.00;;;;;;4953205;29;20186;-55
2021/08/20 08:23:56;;;;;;;18.08;3.67;;;26.90;48.10;;;;;;4952602;28;20213;-48
2021/08/20 08:26:23;;;;;;;11.88;3.72;;;26.90;48.30;;;;;;4939606;29;20023;-54
2021/08/20 08:28:50;;;;;;;10.77;3.75;;;26.90;48.10;;;;;;4956065;29;20031;-49
2021/08/20 08:31:15;;;;;;;9.68;3.88;;;26.90;48.20;;;;;;4957151;29;20031;-53
2021/08/20 08:33:41;;;;;;;7.32;3.63;;;27.00;48.60;;;;;;4956464;29;20033;-53
2021/08/20 08:36:07;;;;;;;8.30;3.78;;;27.00;48.40;;;;;;4956078;29;20094;-50
2021/08/20 08:38:32;;;;;;;11.55;3.63;;;27.00;48.20;;;;;;4956254;29;20496;-52
2021/08/20 08:40:58;;;;;;;12.48;3.67;;;27.00;48.50;;;;;;4954425;29;20131;-57
2021/08/20 08:43:24;;;;;;;6.68;3.58;;;27.00;47.90;;;;;;4939324;29;20114;-56
2021/08/20 08:45:50;;;;;;;7.43;3.50;;;27.00;48.00;;;;;;4954409;29;20086;-57
2021/08/20 08:48:15;;;;;;;10.23;4.07;;;27.00;48.00;;;;;;4955359;29;20366;-55
2021/08/20 08:50:46;;;;;;;9.27;3.55;;;27.10;48.00;;;;;;4955220;29;20421;-56
2021/08/20 08:53:11;;;;;;;9.20;3.33;;;27.10;48.00;;;;;;4955827;29;20073;-55
2021/08/20 08:55:37;;;;;;;7.05;3.55;;;27.10;47.90;;;;;;4956400;29;20035;-55
2021/08/20 08:58:07;;;;;;;11.13;4.07;;;27.10;47.90;;;;;;4954330;29;20028;-56
2021/08/20 09:00:36;;;;;;;9.05;3.58;;;27.10;47.80;;;;;;4956291;29;20027;-56
2021/08/20 09:03:02;;;;;;;7.80;3.80;;;27.10;48.50;;;;;;4954401;29;20101;-55
2021/08/20 09:06:00;;;;;;;5.40;3.40;;;27.10;47.70;;;;;;4956284;29;20106;-57
2021/08/20 09:08:27;;;;;;;8.77;3.80;;;27.10;47.80;;;;;;4933222;29;20066;-54
2021/08/20 09:11:02;;;;;;;12.07;3.30;;;27.20;47.70;;;;;;4955244;29;20031;-54
2021/08/20 09:13:29;;;;;;;7.05;3.00;;;27.10;47.70;;;;;;4955815;29;20027;-56
2021/08/20 09:16:09;;;;;;;12.13;3.40;;;27.20;47.70;;;;;;4955105;29;20031;-56
2021/08/20 09:18:36;;;;;;;6.00;2.90;;;27.20;47.70;;;;;;4955745;29;20063;-55
2021/08/20 09:21:02;;;;;;;7.50;3.30;;;27.20;47.60;;;;;;4953972;29;20039;-56
2021/08/20 09:23:28;;;;;;;7.80;3.42;;;27.20;47.60;;;;;;4955485;29;20134;-55
2021/08/20 09:25:55;;;;;;;6.18;3.00;;;27.20;47.50;;;;;;4955055;29;20027;-54
2021/08/20 09:28:29;;;;;;;6.97;3.28;;;27.20;47.50;;;;;;4955854;29;20476;-54
2021/08/20 09:30:55;;;;;;;;;;;27.20;47.50;;;;;;4955173;29;20027;-57
2021/08/20 09:33:32;;;;;;;5.55;3.47;;;27.30;47.50;;;;;;4955427;29;19997;-54
2021/08/20 09:36:13;;;;;;;7.80;3.10;;;27.30;47.30;;;;;;4953384;28;20109;-54
2021/08/20 09:38:42;;;;;;;6.10;3.30;;;27.30;47.40;;;;;;4937756;29;20058;-54
2021/08/20 09:41:16;;;;;;;5.45;3.28;;;27.30;47.30;;;;;;4954324;29;20031;-56
2021/08/20 09:43:43;;;;;;;;;;;27.30;47.30;;;;;;4955592;29;20099;-56
2021/08/20 09:46:09;;;;;;;4.07;2.97;;;27.40;47.40;;;;;;4937276;29;19906;-52
2021/08/20 09:48:41;;;;;;;5.28;2.92;;;27.30;47.10;;;;;;4955399;29;20037;-54
2021/08/20 09:51:08;;;;;;;6.00;3.00;;;27.30;47.10;;;;;;4953226;29;20078;-55
2021/08/20 09:53:33;;;;;;;5.40;2.75;;;27.30;47.10;;;;;;4936864;29;20063;-54
2021/08/20 09:56:08;;;;;;;4.55;2.92;;;27.30;47.10;;;;;;4952828;29;20388;-51
2021/08/20 09:58:34;;;;;;;3.70;3.00;;;27.30;47.10;;;;;;4953533;29;20382;-56
2021/08/20 10:01:04;;;;;;;4.30;3.00;;;27.30;47.10;;;;;;4953084;29;20035;-55
2021/08/20 10:03:32;;;;;;;6.53;3.28;;;27.30;47.10;;;;;;4954751;29;20095;-54
2021/08/20 10:06:00;;;;;;;5.90;3.13;;;27.30;47.00;;;;;;4953731;29;20023;-54
2021/08/20 10:08:27;;;;;;;5.22;3.10;;;27.40;47.00;;;;;;4953002;29;20031;-55
2021/08/20 10:10:55;;;;;;;4.47;3.08;;;27.40;47.00;;;;;;4953946;29;20034;-55
2021/08/20 10:13:23;;;;;;;5.93;2.90;;;27.40;46.90;;;;;;4954722;29;20019;-54
2021/08/20 10:15:49;;;;;;;4.55;2.78;;;27.40;46.90;;;;;;4952755;29;20031;-55
2021/08/20 10:18:15;;;;;;;6.20;3.20;;;27.40;46.90;;;;;;4952301;29;20403;-55
2021/08/20 10:20:42;;;;;;;4.70;3.20;;;27.40;46.90;;;;;;4953827;29;20027;-54
2021/08/20 10:23:15;;;;;;;5.00;3.17;;;27.40;46.90;;;;;;4952117;29;20034;-56
2021/08/20 10:25:41;;;;;;;4.13;3.20;;;27.40;46.80;;;;;;4953778;29;20487;-53
2021/08/20 10:28:10;;;;;;;5.82;3.20;;;27.40;46.70;;;;;;4952980;29;20162;-54
2021/08/20 10:30:37;;;;;;;4.75;3.40;;;27.40;46.70;;;;;;4952081;29;20191;-56
2021/08/20 10:33:04;;;;;;;4.88;3.10;;;27.40;46.60;;;;;;4952966;29;20027;-54
2021/08/20 10:35:48;;;;;;;5.03;3.35;;;27.50;46.70;;;;;;4953774;29;20155;-52
2021/08/20 10:38:23;;;;;;;;;;;27.40;46.70;;;;;;4953528;29;20035;-56
2021/08/20 10:41:10;;;;;;;4.47;3.22;;;27.60;46.70;;;;;;4953817;29;19977;-53
2021/08/20 10:44:02;;;;;;;5.15;3.20;;;27.50;47.20;;;;;;4952074;29;20480;-56
2021/08/20 10:46:49;;;;;;;5.57;3.20;;;27.50;46.50;;;;;;4952943;28;20027;-52
2021/08/20 10:49:17;;;;;;;4.00;2.85;;;27.50;46.50;;;;;;4953107;29;20033;-53
2021/08/20 10:51:51;;;;;;;3.83;3.00;;;27.50;46.50;;;;;;4953344;29;20082;-56
2021/08/20 10:54:26;;;;;;;3.92;2.80;;;27.50;46.50;;;;;;4951526;29;20208;-55
2021/08/20 10:56:52;;;;;;;4.53;3.10;;;27.50;46.50;;;;;;4952022;29;20134;-55
2021/08/20 10:59:39;;;;;;;6.82;3.60;;;27.50;46.50;;;;;;4951557;29;20032;-54
2021/08/20 11:02:23;;;;;;;4.43;3.13;;;27.50;46.50;;;;;;4953065;29;20099;-54
2021/08/20 11:04:56;;;;;;;5.95;3.45;;;27.50;46.50;;;;;;4951734;29;20114;-52
2021/08/20 11:07:51;;;;;;;5.00;3.13;;;27.50;46.40;;;;;;4950974;29;20031;-52
2021/08/20 11:10:17;;;;;;;5.45;3.63;;;27.50;46.50;;;;;;4944106;29;20043;-52
2021/08/20 11:12:53;;;;;;;4.55;2.95;;;27.60;46.40;;;;;;4951935;29;20034;-56
2021/08/20 11:15:22;;;;;;;5.53;3.05;;;27.50;46.30;;;;;;4951273;29;20170;-54
2021/08/20 11:17:53;;;;;;;4.72;3.10;;;27.60;46.90;;;;;;4953317;29;20039;-55
2021/08/20 11:20:24;;;;;;;4.95;3.67;;;27.60;46.30;;;;;;4951635;29;20028;-55
2021/08/20 11:23:05;;;;;;;6.47;3.35;;;27.60;46.20;;;;;;4952998;29;20035;-52
2021/08/20 11:25:48;;;;;;;5.25;3.40;;;27.60;46.30;;;;;;4951590;29;20040;-55
2021/08/20 11:28:20;;;;;;;4.63;3.00;;;27.60;46.20;;;;;;4951359;29;20034;-55
2021/08/20 11:31:00;;;;;;;5.28;3.35;;;27.60;46.10;;;;;;4951644;29;20038;-56
2021/08/20 11:33:31;;;;;;;6.18;3.80;;;27.60;46.10;;;;;;4952968;29;20469;-53
2021/08/20 11:36:08;;;;;;;5.07;3.53;;;27.60;46.00;;;;;;4952514;29;20024;-55
2021/08/20 11:38:46;;;;;;;8.02;3.13;;;27.60;46.00;;;;;;4952570;29;20090;-53
2021/08/20 11:41:23;;;;;;;5.00;3.60;;;27.60;46.00;;;;;;4951153;29;20036;-52
2021/08/20 11:43:58;;;;;;;8.82;7.70;;;27.70;46.00;;;;;;4950944;29;20034;-51
2021/08/20 11:46:51;;;;;;;10.90;8.05;;;27.70;46.00;;;;;;4951169;29;20175;-54
2021/08/20 11:49:25;;;;;;;11.52;8.23;;;27.70;46.00;;;;;;4952300;29;20031;-53
2021/08/20 11:51:51;;;;;;;9.88;7.65;;;27.70;46.00;;;;;;4952971;29;20024;-54
2021/08/20 11:54:17;;;;;;;10.30;5.93;;;27.70;45.90;;;;;;4952363;29;20059;-57
2021/08/20 11:56:53;;;;;;;10.93;6.32;;;27.80;45.80;;;;;;4935326;29;20030;-55
2021/08/20 11:59:20;;;;;;;8.93;6.45;;;27.70;45.80;;;;;;4951430;28;20035;-57
2021/08/20 12:01:45;;;;;;;8.25;5.97;;;27.80;45.80;;;;;;4954487;29;20098;-56
2021/08/20 12:04:11;;;;;;;8.52;5.82;;;27.80;45.70;;;;;;4953835;29;20420;-55
2021/08/20 12:06:38;;;;;;;7.18;5.18;;;27.80;45.70;;;;;;4954920;29;20118;-56
2021/08/20 12:09:09;;;;;;;8.20;5.18;;;27.80;46.30;;;;;;4954507;29;20459;-54
2021/08/20 12:11:35;;;;;;;11.68;5.60;;;27.80;45.60;;;;;;4954890;29;20033;-57
2021/08/20 12:14:01;;;;;;;9.23;5.50;;;27.80;45.60;;;;;;4954957;29;20035;-55
2021/08/20 12:16:46;;;;;;;8.27;5.75;;;27.80;45.60;;;;;;4955789;29;20024;-56
2021/08/20 12:19:23;;;;;;;7.43;5.50;;;27.80;45.60;;;;;;4955186;29;20031;-53
2021/08/20 12:22:10;;;;;;;7.82;5.47;;;27.80;45.60;;;;;;4954564;29;20042;-56
2021/08/20 12:24:54;;;;;;;9.07;5.40;;;27.80;45.60;;;;;;4937922;29;20102;-55
2021/08/20 12:27:26;;;;;;;7.78;5.25;;;27.80;45.50;;;;;;4953216;29;20043;-54
2021/08/20 12:29:57;;;;;;;7.38;5.13;;;27.80;45.60;;;;;;4955040;29;20035;-56
2021/08/20 12:32:23;;;;;;;8.70;4.93;;;27.80;45.50;;;;;;4953588;29;20212;-56
2021/08/20 12:35:05;;;;;;;7.82;5.45;;;27.90;45.60;;;;;;4954795;29;20031;-53
2021/08/20 12:37:33;;;;;;;7.35;5.25;;;27.90;45.70;;;;;;4954098;29;20030;-56
2021/08/20 12:40:10;;;;;;;7.40;5.32;;;27.90;45.60;;;;;;4954204;29;20031;-52
2021/08/20 12:42:47;;;;;;;8.38;5.45;;;27.90;45.60;;;;;;4955238;29;20031;-54
2021/08/20 12:45:18;;;;;;;7.38;4.65;;;27.90;45.60;;;;;;4955161;29;20484;-56
2021/08/20 12:48:04;;;;;;;9.02;4.75;;;27.90;45.60;;;;;;4954229;29;20031;-53
2021/08/20 12:50:31;;;;;;;7.47;5.18;;;27.90;45.70;;;;;;4955704;29;20358;-57
2021/08/20 12:53:05;;;;;;;6.40;4.75;;;27.90;45.50;;;;;;4936772;29;20061;-54